Stuart, IA

4:10 PM CDT on August 30, 2014 (GMT -0500)
Audubon County | Change Station
CLOSE
Current Station
Airport
Location: Audubon,
Elevation: 1286 ft
Nearby Weather Stations

Elev 1286 ft 41.70 °N, 94.92 °W | Updated 15 minutes ago

Scattered Clouds
Scattered Clouds
81 °F
Feels Like 84 °F
N
0
Wind Variable Wind from North

Today
High -- | Low -- °F
--% Chance of Precip.
Yesterday
High -- | Low -- °F
Precip. -- in
6:41 AM 7:53 PM
Waxing Crescent, 24% visible
Pressure 29.92 in
Visibility 10.0 miles
Clouds Scattered Clouds 2900 ft
Heat Index 84 °F
Dew Point 70 °F
Humidity 70%
Rainfall 0.00 in
Snow Depth Not available.
UV 5 out of 12
Pollen 8.20 out of 12
Air Quality Not available.
Flu Activity Not available.
METAR KADU 302055Z AUTO 00000KT 10SM SCT029 27/21 A2992 RMK AO2

More Conditions Fewer Conditions

Pressure 29.92 in
Visibility 10.0 miles
Clouds Scattered Clouds 2900 ft
Heat Index 84 °F
Dew Point 70 °F
Humidity 70%
Rainfall 0.00 in
Snow Depth Not available.
UV 5 out of 12
Pollen 8.20 out of 12
Air Quality Not available.
Flu Activity Not available.
METAR KADU 302055Z AUTO 00000KT 10SM SCT029 27/21 A2992 RMK AO2

More Conditions Fewer Conditions

10-Day Weather Forecast

Almanac

Astronomy

Aug. 30, 2014 Rise Set
Actual Time 6:41 AM CDT 7:53 PM CDT
Civil Twilight 6:12 AM CDT 8:22 PM CDT
Nautical Twilight 5:38 AM CDT 8:56 PM CDT
Astronomical Twilight 5:02 AM CDT 9:32 PM CDT
Moon 11:33 AM CDT 10:24 PM CDT
Length of Visible Light 14h 09m
Length of Day
13h 12m
Tomorrow will be 2m 39s shorter.
Waxing Crescent, 24% of the Moon is Illuminated
Today
Waxing Crescent
Sep 2
First Quarter
Sep 8
Full
Sep 15
Last Quarter
Sep 24
New

Today's Extremes

State Highs State Lows

Community

WunderPhotos

Upload Photos

1,748,634 photos uploaded!

WunderBlogs® & News

Nearby

Snow Depth

Station Depth Elevation
No new snow has been reported.

Earthquake Activity

City Distance Mag. Time & Date
No recent earthquake activity has been reported nearby.
Minimum magnitude displayed is 2.5.

Coastal Water Temperatures

Place Temperature
No Stations Reporting

Nearby Weather Stations